Time,TemperatureF,DewpointF,PressureIn,WindDirection,WindDirectionDegrees,WindSpeedMPH,WindSpeedGustMPH,Humidity,HourlyPrecipIn,Conditions,Clouds,dailyrainin,SoftwareType,DateUTC
2013-04-25 00:00:00,57.5,56.1,28.47,North,354,12.7,12.7,95,0.00,CLR,CLR,0.00,WeatherDisplay:10.37,2013-04-25 04:00:00,
2013-04-25 00:01:00,57.4,56.0,28.48,NNW,343,11.5,11.5,95,0.00,CLR,CLR,0.00,WeatherDisplay:10.37,2013-04-25 04:01:00,
2013-04-25 00:04:00,57.2,55.5,28.48,NNW,329,10.4,10.4,94,0.00,CLR,CLR,0.00,WeatherDisplay:10.37,2013-04-25 04:04:00,
2013-04-25 00:09:00,57.0,55.3,28.48,WNW,302,13.8,13.8,94,0.00,CLR,CLR,0.00,WeatherDisplay:10.37,2013-04-25 04:09:00,
2013-04-25 00:15:00,56.7,55.0,28.49,NW,324,9.2,9.2,94,0.00,CLR,CLR,0.00,WeatherDisplay:10.37,2013-04-25 04:15:00,
2013-04-25 00:20:00,56.5,54.2,28.48,NW,323,11.5,11.5,92,0.00,CLR,CLR,0.00,WeatherDisplay:10.37,2013-04-25 04:20:00,
2013-04-25 00:25:00,56.2,53.6,28.48,WNW,294,11.5,11.5,91,0.00,CLR,CLR,0.00,WeatherDisplay:10.37,2013-04-25 04:25:00,
2013-04-25 00:30:00,55.8,53.2,28.48,NNW,334,13.8,13.8,91,0.00,CLR,CLR,0.00,WeatherDisplay:10.37,2013-04-25 04:30:00,
2013-04-25 00:35:00,55.4,52.8,28.49,NNW,327,17.3,17.3,91,0.00,CLR,CLR,0.00,WeatherDisplay:10.37,2013-04-25 04:35:00,
2013-04-25 00:40:00,55.1,52.5,28.49,NNW,337,13.0,13.0,91,0.00,CLR,CLR,0.00,WeatherDisplay:10.37,2013-04-25 04:40:00,
2013-04-25 00:46:00,54.8,51.9,28.49,NNW,327,11.5,11.5,90,0.00,CLR,CLR,0.00,WeatherDisplay:10.37,2013-04-25 04:46:00,
2013-04-25 00:51:00,54.5,51.6,28.48,North,7,10.0,10.0,90,0.00,CLR,CLR,0.00,WeatherDisplay:10.37,2013-04-25 04:51:00,
2013-04-25 00:56:00,54.2,51.0,28.48,NW,310,13.8,13.8,89,0.00,CLR,CLR,0.00,WeatherDisplay:10.37,2013-04-25 04:56:00,
2013-04-25 01:01:00,53.9,50.7,28.49,NNW,338,11.0,11.0,89,0.00,CLR,CLR,0.00,WeatherDisplay:10.37,2013-04-25 05:01:00,
2013-04-25 01:06:00,53.6,50.1,28.49,NNW,343,10.4,10.4,88,0.00,CLR,CLR,0.00,WeatherDisplay:10.37,2013-04-25 05:06:00,
2013-04-25 01:11:00,53.3,49.8,28.49,North,4,9.2,9.2,88,0.00,CLR,CLR,0.00,WeatherDisplay:10.37,2013-04-25 05:11:00,
2013-04-25 01:17:00,53.0,49.5,28.50,NW,324,10.4,10.4,88,0.00,CLR,CLR,0.00,WeatherDisplay:10.37,2013-04-25 05:17:00,
2013-04-25 01:22:00,52.9,49.1,28.50,North,349,6.0,6.0,87,0.00,CLR,CLR,0.00,WeatherDisplay:10.37,2013-04-25 05:22:00,
2013-04-25 01:27:00,52.7,48.9,28.50,NW,309,9.0,9.0,87,0.00,CLR,CLR,0.00,WeatherDisplay:10.37,2013-04-25 05:27:00,
2013-04-25 01:32:00,52.6,48.5,28.50,WNW,288,11.5,11.5,86,0.00,CLR,CLR,0.00,WeatherDisplay:10.37,2013-04-25 05:32:00,
2013-04-25 01:37:00,52.5,48.7,28.50,North,352,8.1,8.1,87,0.00,CLR,CLR,0.00,WeatherDisplay:10.37,2013-04-25 05:37:00,
2013-04-25 01:43:00,52.4,48.3,28.50,NNW,341,11.5,11.5,86,0.00,CLR,CLR,0.00,WeatherDisplay:10.37,2013-04-25 05:43:00,
2013-04-25 01:48:00,52.3,48.2,28.50,NW,322,5.8,5.8,86,0.00,CLR,CLR,0.00,WeatherDisplay:10.37,2013-04-25 05:48:00,
2013-04-25 01:53:00,52.0,47.9,28.51,NNW,344,15.0,15.0,86,0.00,CLR,CLR,0.00,WeatherDisplay:10.37,2013-04-25 05:53:00,
2013-04-25 01:58:00,51.7,47.3,28.50,NW,317,6.9,8.4,85,0.00,CLR,CLR,0.00,WeatherDisplay:10.37,2013-04-25 05:58:00,
2013-04-25 02:04:00,51.4,46.7,28.51,SW,216,6.9,6.9,84,0.00,CLR,CLR,0.00,WeatherDisplay:10.37,2013-04-25 06:04:00,
2013-04-25 02:09:00,50.9,46.2,28.51,North,0,9.2,9.2,84,0.00,CLR,CLR,0.00,WeatherDisplay:10.37,2013-04-25 06:09:00,
2013-04-25 02:14:00,50.5,45.8,28.51,North,356,10.4,10.4,84,0.00,CLR,CLR,0.00,WeatherDisplay:10.37,2013-04-25 06:14:00,
2013-04-25 02:19:00,50.2,45.6,28.51,NNW,332,11.5,11.5,84,0.00,CLR,CLR,0.00,WeatherDisplay:10.37,2013-04-25 06:19:00,
2013-04-25 02:24:00,49.9,44.9,28.51,NW,304,9.2,9.2,83,0.00,CLR,CLR,0.00,WeatherDisplay:10.37,2013-04-25 06:24:00,
2013-04-25 02:30:00,49.7,44.7,28.51,NNW,329,9.2,9.2,83,0.00,CLR,CLR,0.00,WeatherDisplay:10.37,2013-04-25 06:30:00,
2013-04-25 02:35:00,49.4,44.5,28.51,NNW,343,12.7,12.7,83,0.00,CLR,CLR,0.00,WeatherDisplay:10.37,2013-04-25 06:35:00,
2013-04-25 02:40:00,49.2,44.3,28.51,NW,307,19.6,19.6,83,0.00,CLR,CLR,0.00,WeatherDisplay:10.37,2013-04-25 06:40:00,
2013-04-25 02:45:00,49.1,43.8,28.52,North,351,11.5,11.5,82,0.00,CLR,CLR,0.00,WeatherDisplay:10.37,2013-04-25 06:45:00,
2013-04-25 02:51:00,49.0,43.7,28.52,NNW,344,10.4,10.4,82,0.00,CLR,CLR,0.00,WeatherDisplay:10.37,2013-04-25 06:51:00,
2013-04-25 02:56:00,48.8,43.9,28.52,WNW,296,17.3,17.3,83,0.00,CLR,CLR,0.00,WeatherDisplay:10.37,2013-04-25 06:56:00,
2013-04-25 03:01:00,48.7,43.8,28.53,NE,39,3.5,3.5,83,0.00,CLR,CLR,0.00,WeatherDisplay:10.37,2013-04-25 07:01:00,
2013-04-25 03:06:00,48.6,43.7,28.53,NW,324,6.0,6.0,83,0.00,CLR,CLR,0.00,WeatherDisplay:10.37,2013-04-25 07:06:00,
2013-04-25 03:11:00,48.5,43.6,28.53,NW,309,9.2,9.2,83,0.00,CLR,CLR,0.00,WeatherDisplay:10.37,2013-04-25 07:11:00,
2013-04-25 03:16:00,48.4,43.2,28.53,NNW,333,9.2,9.2,82,0.00,CLR,CLR,0.00,WeatherDisplay:10.37,2013-04-25 07:16:00,
2013-04-25 03:21:00,48.2,43.3,28.53,North,356,11.5,11.5,83,0.00,CLR,CLR,0.00,WeatherDisplay:10.37,2013-04-25 07:21:00,
2013-04-25 03:27:00,48.1,43.2,28.54,WNW,290,3.5,3.5,83,0.00,CLR,CLR,0.00,WeatherDisplay:10.37,2013-04-25 07:27:00,
2013-04-25 03:32:00,47.8,42.9,28.54,NNE,28,8.1,8.1,83,0.00,CLR,CLR,0.00,WeatherDisplay:10.37,2013-04-25 07:32:00,
2013-04-25 03:37:00,47.9,42.3,28.54,NW,308,12.0,12.0,81,0.00,CLR,CLR,0.00,WeatherDisplay:10.37,2013-04-25 07:37:00,
2013-04-25 03:42:00,47.8,42.3,28.54,North,349,11.5,11.5,81,0.00,CLR,CLR,0.00,WeatherDisplay:10.37,2013-04-25 07:42:00,
2013-04-25 03:47:00,47.6,41.7,28.54,NW,318,15.0,15.0,80,0.00,CLR,CLR,0.00,WeatherDisplay:10.37,2013-04-25 07:47:00,
2013-04-25 03:52:00,47.6,41.7,28.55,NW,304,6.9,6.9,80,0.00,CLR,CLR,0.00,WeatherDisplay:10.37,2013-04-25 07:52:00,
2013-04-25 03:57:00,47.5,41.6,28.55,NNW,346,9.2,9.2,80,0.00,CLR,CLR,0.00,WeatherDisplay:10.37,2013-04-25 07:57:00,
2013-04-25 04:02:00,47.4,41.5,28.55,NNW,342,9.2,9.2,80,0.00,CLR,CLR,0.00,WeatherDisplay:10.37,2013-04-25 08:02:00,
2013-04-25 04:08:00,47.1,41.6,28.55,NNW,331,3.5,3.5,81,0.00,CLR,CLR,0.00,WeatherDisplay:10.37,2013-04-25 08:08:00,
2013-04-25 04:13:00,46.9,41.4,28.56,NNW,327,5.8,5.8,81,0.00,CLR,CLR,0.00,WeatherDisplay:10.37,2013-04-25 08:13:00,
2013-04-25 04:18:00,46.7,41.5,28.56,NW,309,9.2,9.2,82,0.00,CLR,CLR,0.00,WeatherDisplay:10.37,2013-04-25 08:18:00,
2013-04-25 04:23:00,46.4,41.2,28.56,North,353,8.1,8.1,82,0.00,CLR,CLR,0.00,WeatherDisplay:10.37,2013-04-25 08:23:00,
2013-04-25 04:28:00,46.1,40.9,28.56,NNW,336,10.4,10.4,82,0.00,CLR,CLR,0.00,WeatherDisplay:10.37,2013-04-25 08:28:00,
2013-04-25 04:33:00,45.7,40.5,28.56,NNW,337,9.2,9.2,82,0.00,CLR,CLR,0.00,WeatherDisplay:10.37,2013-04-25 08:33:00,
2013-04-25 04:39:00,45.3,39.5,28.56,NNW,337,15.0,15.0,80,0.00,CLR,CLR,0.00,WeatherDisplay:10.37,2013-04-25 08:39:00,
2013-04-25 04:44:00,45.0,38.9,28.56,North,5,16.1,16.1,79,0.00,CLR,CLR,0.00,WeatherDisplay:10.37,2013-04-25 08:44:00,
2013-04-25 04:49:00,44.7,38.6,28.57,NE,40,13.8,13.8,79,0.00,CLR,CLR,0.00,WeatherDisplay:10.37,2013-04-25 08:49:00,
2013-04-25 04:54:00,44.3,38.2,28.57,NW,325,13.8,13.8,79,0.00,CLR,CLR,0.00,WeatherDisplay:10.37,2013-04-25 08:54:00,
2013-04-25 04:59:00,44.1,38.0,28.57,NW,317,17.3,17.3,79,0.00,CLR,CLR,0.00,WeatherDisplay:10.37,2013-04-25 08:59:00,
2013-04-25 05:04:00,44.0,37.9,28.57,NNW,336,15.0,15.0,79,0.00,CLR,CLR,0.00,WeatherDisplay:10.37,2013-04-25 09:04:00,
2013-04-25 05:10:00,43.9,37.8,28.58,WNW,299,11.5,11.5,79,0.00,CLR,CLR,0.00,WeatherDisplay:10.37,2013-04-25 09:10:00,
2013-04-25 05:15:00,43.6,37.5,28.58,NW,319,5.8,5.8,79,0.00,CLR,CLR,0.00,WeatherDisplay:10.37,2013-04-25 09:15:00,
2013-04-25 05:20:00,43.4,37.3,28.59,NNW,344,15.0,15.0,79,0.00,CLR,CLR,0.00,WeatherDisplay:10.37,2013-04-25 09:20:00,
2013-04-25 05:25:00,43.4,37.3,28.59,NW,320,8.1,8.1,79,0.00,CLR,CLR,0.00,WeatherDisplay:10.37,2013-04-25 09:25:00,
2013-04-25 05:30:00,43.3,37.2,28.59,NNW,346,12.7,12.7,79,0.00,CLR,CLR,0.00,WeatherDisplay:10.37,2013-04-25 09:30:00,
2013-04-25 05:36:00,43.2,37.1,28.59,NNW,332,15.0,15.0,79,0.00,CLR,CLR,0.00,WeatherDisplay:10.37,2013-04-25 09:36:00,
2013-04-25 05:41:00,43.2,36.8,28.59,NW,319,16.0,16.0,78,0.00,CLR,CLR,0.00,WeatherDisplay:10.37,2013-04-25 09:41:00,
2013-04-25 05:46:00,43.2,36.8,28.59,NW,325,23.0,23.0,78,0.00,CLR,CLR,0.00,WeatherDisplay:10.37,2013-04-25 09:46:00,
2013-04-25 05:51:00,43.2,36.8,28.62,NW,317,13.8,13.8,78,0.00,CLR,CLR,0.00,WeatherDisplay:10.37,2013-04-25 09:51:00,
2013-04-25 05:57:00,43.2,36.8,28.62,NNW,348,16.1,16.1,78,0.00,CLR,CLR,0.00,WeatherDisplay:10.37,2013-04-25 09:57:00,
2013-04-25 06:02:00,43.1,37.0,28.62,North,354,11.5,11.5,79,0.00,CLR,CLR,0.00,WeatherDisplay:10.37,2013-04-25 10:02:00,
2013-04-25 06:07:00,42.9,36.8,28.62,NW,325,15.0,15.0,79,0.00,CLR,CLR,0.00,WeatherDisplay:10.37,2013-04-25 10:07:00,
2013-04-25 06:12:00,42.8,36.7,28.64,North,350,9.2,9.2,79,0.00,CLR,CLR,0.00,WeatherDisplay:10.37,2013-04-25 10:12:00,
2013-04-25 06:17:00,42.7,36.6,28.63,NW,318,11.5,11.5,79,0.00,CLR,CLR,0.00,WeatherDisplay:10.37,2013-04-25 10:17:00,
2013-04-25 06:22:00,42.7,36.6,28.63,North,349,12.7,12.7,79,0.00,CLR,CLR,0.00,WeatherDisplay:10.37,2013-04-25 10:22:00,
2013-04-25 06:27:00,42.6,36.5,28.64,NNW,340,16.1,16.1,79,0.00,CLR,CLR,0.00,WeatherDisplay:10.37,2013-04-25 10:27:00,
2013-04-25 06:32:00,42.4,36.3,28.63,NNW,328,11.5,11.5,79,0.00,CLR,CLR,0.00,WeatherDisplay:10.37,2013-04-25 10:32:00,
2013-04-25 06:37:00,42.1,35.7,28.64,NNW,338,11.5,11.5,78,0.00,CLR,CLR,0.00,WeatherDisplay:10.37,2013-04-25 10:37:00,
2013-04-25 06:42:00,41.9,35.2,28.64,North,352,11.5,11.5,77,0.00,CLR,CLR,0.00,WeatherDisplay:10.37,2013-04-25 10:42:00,
2013-04-25 06:47:00,41.8,35.1,28.65,NNW,328,8.1,8.1,77,0.00,CLR,CLR,0.00,WeatherDisplay:10.37,2013-04-25 10:47:00,
2013-04-25 06:52:00,41.6,36.2,28.75,North,349,11.5,11.5,81,0.00,CLR,CLR,0.00,WeatherDisplay:10.37,2013-04-25 10:52:00,
2013-04-25 06:58:00,41.5,35.5,28.71,North,350,16.1,16.1,79,0.00,CLR,CLR,0.00,WeatherDisplay:10.37,2013-04-25 10:58:00,
2013-04-25 07:03:00,41.5,36.1,28.71,NNW,333,10.4,10.4,81,0.00,CLR,CLR,0.00,WeatherDisplay:10.37,2013-04-25 11:03:00,
2013-04-25 07:08:00,41.9,36.2,28.69,NNW,339,12.7,12.7,80,0.00,CLR,CLR,0.00,WeatherDisplay:10.37,2013-04-25 11:08:00,
2013-04-25 07:13:00,42.2,35.5,28.72,NNW,333,10.4,10.4,77,0.00,CLR,CLR,0.00,WeatherDisplay:10.37,2013-04-25 11:13:00,
2013-04-25 07:18:00,42.6,35.9,28.84,NNW,330,12.7,12.7,77,0.00,CLR,CLR,0.00,WeatherDisplay:10.37,2013-04-25 11:18:00,
2013-04-25 07:23:00,43.0,35.6,28.84,North,357,19.6,19.6,75,0.00,CLR,CLR,0.00,WeatherDisplay:10.37,2013-04-25 11:23:00,
2013-04-25 07:28:00,43.5,36.4,28.76,NNW,346,7.0,7.0,76,0.00,CLR,CLR,0.00,WeatherDisplay:10.37,2013-04-25 11:28:00,
2013-04-25 07:34:00,43.8,36.4,28.72,NNW,328,13.8,13.8,75,0.00,CLR,CLR,0.00,WeatherDisplay:10.37,2013-04-25 11:34:00,
2013-04-25 07:39:00,44.3,36.9,28.72,NNW,335,9.2,9.2,75,0.00,CLR,CLR,0.00,WeatherDisplay:10.37,2013-04-25 11:39:00,
2013-04-25 07:44:00,44.7,36.9,28.73,NNW,331,16.1,16.1,74,0.00,CLR,CLR,0.00,WeatherDisplay:10.37,2013-04-25 11:44:00,
2013-04-25 07:49:00,44.8,36.3,28.87,NNW,341,13.0,13.0,72,0.00,CLR,CLR,0.00,WeatherDisplay:10.37,2013-04-25 11:49:00,
2013-04-25 07:54:00,45.1,37.0,28.87,NNW,327,11.5,11.5,73,0.00,CLR,CLR,0.00,WeatherDisplay:10.37,2013-04-25 11:54:00,
2013-04-25 07:59:00,45.4,36.5,28.85,NNW,332,11.5,11.5,71,0.00,CLR,CLR,0.00,WeatherDisplay:10.37,2013-04-25 11:59:00,
2013-04-25 08:05:00,45.6,36.7,28.90,NNW,335,16.1,16.1,71,0.00,CLR,CLR,0.00,WeatherDisplay:10.37,2013-04-25 12:05:00,
2013-04-25 08:10:00,45.8,37.3,28.79,North,349,6.0,6.0,72,0.00,CLR,CLR,0.00,WeatherDisplay:10.37,2013-04-25 12:10:00,
2013-04-25 08:15:00,46.0,37.1,28.78,NNW,348,16.1,16.1,71,0.00,CLR,CLR,0.00,WeatherDisplay:10.37,2013-04-25 12:15:00,
2013-04-25 08:20:00,46.1,37.2,28.87,NNW,343,15.0,15.0,71,0.00,CLR,CLR,0.00,WeatherDisplay:10.37,2013-04-25 12:20:00,
2013-04-25 08:25:00,46.5,37.2,28.85,NNW,332,11.5,11.5,70,0.00,CLR,CLR,0.00,WeatherDisplay:10.37,2013-04-25 12:25:00,
2013-04-25 08:30:00,46.6,37.3,28.87,North,358,16.1,16.1,70,0.00,CLR,CLR,0.00,WeatherDisplay:10.37,2013-04-25 12:30:00,
2013-04-25 08:35:00,46.7,37.1,28.90,NNW,328,15.0,15.0,69,0.00,CLR,CLR,0.00,WeatherDisplay:10.37,2013-04-25 12:35:00,
2013-04-25 08:41:00,47.1,37.8,28.89,North,351,12.7,12.7,70,0.00,CLR,CLR,0.00,WeatherDisplay:10.37,2013-04-25 12:41:00,
2013-04-25 08:46:00,47.6,37.9,28.88,NNW,331,9.2,9.2,69,0.00,CLR,CLR,0.00,WeatherDisplay:10.37,2013-04-25 12:46:00,
2013-04-25 08:51:00,48.2,38.5,28.88,NW,325,11.5,11.5,69,0.00,CLR,CLR,0.00,WeatherDisplay:10.37,2013-04-25 12:51:00,
2013-04-25 08:56:00,48.4,38.3,28.90,NNW,332,9.0,9.0,68,0.00,CLR,CLR,0.00,WeatherDisplay:10.37,2013-04-25 12:56:00,
2013-04-25 09:01:00,48.2,37.4,28.92,NNW,341,16.1,16.1,66,0.00,CLR,CLR,0.00,WeatherDisplay:10.37,2013-04-25 13:01:00,
2013-04-25 09:07:00,48.1,37.7,28.94,North,357,11.5,11.5,67,0.00,CLR,CLR,0.00,WeatherDisplay:10.37,2013-04-25 13:07:00,
2013-04-25 09:12:00,48.4,38.3,28.81,North,353,13.0,13.0,68,0.00,CLR,CLR,0.00,WeatherDisplay:10.37,2013-04-25 13:12:00,
2013-04-25 09:17:00,48.7,37.8,28.91,North,358,10.4,10.4,66,0.00,CLR,CLR,0.00,WeatherDisplay:10.37,2013-04-25 13:17:00,
2013-04-25 09:22:00,49.2,38.3,28.89,North,350,11.5,11.5,66,0.00,CLR,CLR,0.00,WeatherDisplay:10.37,2013-04-25 13:22:00,
2013-04-25 09:27:00,49.6,37.9,28.91,NNW,341,15.0,15.0,64,0.00,CLR,CLR,0.00,WeatherDisplay:10.37,2013-04-25 13:27:00,
2013-04-25 09:33:00,49.8,38.1,28.91,NNW,344,11.5,11.5,64,0.00,CLR,CLR,0.00,WeatherDisplay:10.37,2013-04-25 13:33:00,
2013-04-25 09:38:00,49.6,37.9,28.88,NW,324,17.3,17.3,64,0.00,CLR,CLR,0.00,WeatherDisplay:10.37,2013-04-25 13:38:00,
2013-04-25 09:43:00,49.9,37.8,28.89,North,352,15.0,15.0,63,0.00,CLR,CLR,0.00,WeatherDisplay:10.37,2013-04-25 13:43:00,
2013-04-25 09:48:00,50.5,38.8,28.93,NW,323,11.5,11.5,64,0.00,CLR,CLR,0.00,WeatherDisplay:10.37,2013-04-25 13:48:00,
2013-04-25 09:53:00,50.9,38.7,28.92,NNW,329,12.7,12.7,63,0.00,CLR,CLR,0.00,WeatherDisplay:10.37,2013-04-25 13:53:00,
2013-04-25 09:58:00,51.3,39.1,28.82,NW,325,10.0,10.0,63,0.00,CLR,CLR,0.00,WeatherDisplay:10.37,2013-04-25 13:58:00,
2013-04-25 10:03:00,52.1,39.5,28.91,NW,306,9.2,9.2,62,0.00,CLR,CLR,0.00,WeatherDisplay:10.37,2013-04-25 14:03:00,
2013-04-25 10:08:00,52.4,39.8,28.79,North,0,6.9,6.9,62,0.00,CLR,CLR,0.00,WeatherDisplay:10.37,2013-04-25 14:08:00,
2013-04-25 10:13:00,52.8,39.3,28.79,NNW,345,10.4,10.4,60,0.00,CLR,CLR,0.00,WeatherDisplay:10.37,2013-04-25 14:13:00,
2013-04-25 10:19:00,53.1,38.7,28.80,NNW,333,11.5,11.5,58,0.00,CLR,CLR,0.00,WeatherDisplay:10.37,2013-04-25 14:19:00,
2013-04-25 10:24:00,53.6,38.7,28.79,NNW,334,9.2,9.2,57,0.00,CLR,CLR,0.00,WeatherDisplay:10.37,2013-04-25 14:24:00,
2013-04-25 10:29:00,53.9,38.6,28.81,NW,306,10.0,10.0,56,0.00,CLR,CLR,0.00,WeatherDisplay:10.37,2013-04-25 14:29:00,
2013-04-25 10:34:00,54.5,39.6,28.80,NNW,334,8.1,8.1,57,0.00,CLR,CLR,0.00,WeatherDisplay:10.37,2013-04-25 14:34:00,
2013-04-25 10:40:00,55.1,39.2,28.82,North,357,6.9,6.9,55,0.00,CLR,CLR,0.00,WeatherDisplay:10.37,2013-04-25 14:40:00,
2013-04-25 10:45:00,56.0,40.5,28.92,North,0,3.5,3.5,56,0.00,CLR,CLR,0.00,WeatherDisplay:10.37,2013-04-25 14:45:00,
2013-04-25 10:50:00,56.6,41.1,28.88,NE,51,6.0,6.0,56,0.00,CLR,CLR,0.00,WeatherDisplay:10.37,2013-04-25 14:50:00,
2013-04-25 10:55:00,56.9,41.8,28.85,NE,52,3.5,3.5,57,0.00,CLR,CLR,0.00,WeatherDisplay:10.37,2013-04-25 14:55:00,
2013-04-25 11:00:00,57.5,41.0,28.92,SSE,150,3.5,3.5,54,0.00,CLR,CLR,0.00,WeatherDisplay:10.37,2013-04-25 15:00:00,
2013-04-25 11:06:00,58.2,42.1,28.94,SSW,195,4.6,4.6,55,0.00,CLR,CLR,0.00,WeatherDisplay:10.37,2013-04-25 15:06:00,
2013-04-25 11:11:00,59.0,41.4,28.92,North,359,4.6,4.6,52,0.00,CLR,CLR,0.00,WeatherDisplay:10.37,2013-04-25 15:11:00,
2013-04-25 11:16:00,58.6,41.5,28.86,North,0,3.5,3.5,53,0.00,CLR,CLR,0.00,WeatherDisplay:10.37,2013-04-25 15:16:00,
2013-04-25 11:21:00,58.8,41.2,28.99,North,0,3.5,3.5,52,0.00,CLR,CLR,0.00,WeatherDisplay:10.37,2013-04-25 15:21:00,
2013-04-25 11:26:00,59.1,41.0,28.91,ENE,75,3.5,3.5,51,0.00,CLR,CLR,0.00,WeatherDisplay:10.37,2013-04-25 15:26:00,
2013-04-25 11:31:00,59.6,41.4,28.91,WSW,247,6.0,6.0,51,0.00,CLR,CLR,0.00,WeatherDisplay:10.37,2013-04-25 15:31:00,
2013-04-25 11:37:00,59.7,40.5,28.90,WNW,303,8.1,8.1,49,0.00,CLR,CLR,0.00,WeatherDisplay:10.37,2013-04-25 15:37:00,
2013-04-25 11:42:00,59.7,41.0,28.89,SE,139,3.5,3.5,50,0.00,CLR,CLR,0.00,WeatherDisplay:10.37,2013-04-25 15:42:00,
2013-04-25 11:47:00,60.2,41.5,28.97,North,0,4.6,4.6,50,0.00,CLR,CLR,0.00,WeatherDisplay:10.37,2013-04-25 15:47:00,
2013-04-25 11:52:00,60.2,41.0,28.87,North,349,5.8,5.8,49,0.00,CLR,CLR,0.00,WeatherDisplay:10.37,2013-04-25 15:52:00,
2013-04-25 11:57:00,60.4,40.6,28.92,North,5,6.9,6.9,48,0.00,CLR,CLR,0.00,WeatherDisplay:10.37,2013-04-25 15:57:00,
2013-04-25 12:02:00,60.2,39.9,28.89,NNE,13,6.0,6.0,47,0.00,CLR,CLR,0.00,WeatherDisplay:10.37,2013-04-25 16:02:00,
2013-04-25 12:08:00,60.6,40.8,28.93,West,280,8.1,8.1,48,0.00,CLR,CLR,0.00,WeatherDisplay:10.37,2013-04-25 16:08:00,
2013-04-25 12:13:00,60.4,39.5,28.91,WNW,301,10.4,10.4,46,0.00,CLR,CLR,0.00,WeatherDisplay:10.37,2013-04-25 16:13:00,
2013-04-25 12:18:00,60.8,39.9,28.86,WSW,250,5.0,5.0,46,0.00,CLR,CLR,0.00,WeatherDisplay:10.37,2013-04-25 16:18:00,
2013-04-25 12:24:00,61.2,40.2,28.87,NW,315,8.1,8.1,46,0.00,CLR,CLR,0.00,WeatherDisplay:10.37,2013-04-25 16:24:00,
2013-04-25 12:29:00,61.9,40.9,28.85,NNW,339,6.9,6.9,46,0.00,CLR,CLR,0.00,WeatherDisplay:10.37,2013-04-25 16:29:00,
2013-04-25 12:34:00,61.6,40.0,28.86,North,11,9.2,9.2,45,0.00,CLR,CLR,0.00,WeatherDisplay:10.37,2013-04-25 16:34:00,
2013-04-25 12:39:00,61.7,42.3,28.85,North,9,5.0,5.0,49,0.00,CLR,CLR,0.00,WeatherDisplay:10.37,2013-04-25 16:39:00,
2013-04-25 12:44:00,61.9,40.3,28.88,North,8,3.5,3.5,45,0.00,CLR,CLR,0.00,WeatherDisplay:10.37,2013-04-25 16:44:00,
2013-04-25 12:49:00,62.3,38.9,28.85,NNW,340,10.4,10.4,42,0.00,CLR,CLR,0.00,WeatherDisplay:10.37,2013-04-25 16:49:00,
2013-04-25 12:55:00,62.0,38.0,28.88,East,79,4.0,4.0,41,0.00,CLR,CLR,0.00,WeatherDisplay:10.37,2013-04-25 16:55:00,
2013-04-25 13:00:00,62.2,39.4,28.84,North,358,10.0,10.0,43,0.00,CLR,CLR,0.00,WeatherDisplay:10.37,2013-04-25 17:00:00,
2013-04-25 13:05:00,62.0,36.7,28.87,North,1,6.9,6.9,39,0.00,CLR,CLR,0.00,WeatherDisplay:10.37,2013-04-25 17:05:00,
2013-04-25 13:10:00,61.9,36.7,28.86,NNE,19,6.9,6.9,39,0.00,CLR,CLR,0.00,WeatherDisplay:10.37,2013-04-25 17:10:00,
2013-04-25 13:15:00,62.5,38.5,28.86,NNE,31,4.0,4.0,41,0.00,CLR,CLR,0.00,WeatherDisplay:10.37,2013-04-25 17:15:00,
2013-04-25 13:21:00,62.6,37.9,28.88,NE,40,4.6,4.6,40,0.00,CLR,CLR,0.00,WeatherDisplay:10.37,2013-04-25 17:21:00,
2013-04-25 13:26:00,62.8,39.4,28.95,NNE,14,4.6,4.6,42,0.00,CLR,CLR,0.00,WeatherDisplay:10.37,2013-04-25 17:26:00,
2013-04-25 13:31:00,63.2,38.5,28.85,NE,46,4.0,4.0,40,0.00,CLR,CLR,0.00,WeatherDisplay:10.37,2013-04-25 17:31:00,
2013-04-25 13:36:00,63.6,40.7,28.92,NNW,347,4.6,4.6,43,0.00,CLR,CLR,0.00,WeatherDisplay:10.37,2013-04-25 17:36:00,
2013-04-25 13:41:00,63.9,38.4,28.89,ESE,116,4.6,4.6,39,0.00,CLR,CLR,0.00,WeatherDisplay:10.37,2013-04-25 17:41:00,
2013-04-25 13:47:00,64.3,38.1,28.84,NE,53,4.6,4.6,38,0.00,CLR,CLR,0.00,WeatherDisplay:10.37,2013-04-25 17:47:00,
2013-04-25 13:52:00,64.6,42.8,28.87,SE,137,5.8,5.8,45,0.00,CLR,CLR,0.00,WeatherDisplay:10.37,2013-04-25 17:52:00,
2013-04-25 13:57:00,65.0,40.7,28.86,SE,124,3.0,3.0,41,0.00,CLR,CLR,0.00,WeatherDisplay:10.37,2013-04-25 17:57:00,
2013-04-25 14:02:00,65.3,42.2,28.76,SSW,193,3.5,3.5,43,0.00,CLR,CLR,0.00,WeatherDisplay:10.37,2013-04-25 18:02:00,
2013-04-25 14:08:00,65.5,41.2,28.75,ENE,62,4.0,4.0,41,0.00,CLR,CLR,0.00,WeatherDisplay:10.37,2013-04-25 18:08:00,
2013-04-25 14:13:00,65.5,39.2,28.87,SW,220,4.6,4.6,38,0.00,CLR,CLR,0.00,WeatherDisplay:10.37,2013-04-25 18:13:00,
2013-04-25 14:18:00,65.5,41.8,28.87,SSE,163,4.6,4.6,42,0.00,CLR,CLR,0.00,WeatherDisplay:10.37,2013-04-25 18:18:00,
2013-04-25 14:23:00,65.3,39.7,28.88,NNE,29,3.5,3.5,39,0.00,CLR,CLR,0.00,WeatherDisplay:10.37,2013-04-25 18:23:00,
2013-04-25 14:28:00,65.2,40.9,28.88,North,9,3.5,3.5,41,0.00,CLR,CLR,0.00,WeatherDisplay:10.37,2013-04-25 18:28:00,
2013-04-25 14:33:00,64.9,40.6,28.87,North,1,6.9,6.9,41,0.00,CLR,CLR,0.00,WeatherDisplay:10.37,2013-04-25 18:33:00,
2013-04-25 14:38:00,65.0,39.4,28.87,NNE,21,5.8,5.8,39,0.00,CLR,CLR,0.00,WeatherDisplay:10.37,2013-04-25 18:38:00,
2013-04-25 14:43:00,65.1,39.5,28.93,NE,49,4.0,4.0,39,0.00,CLR,CLR,0.00,WeatherDisplay:10.37,2013-04-25 18:43:00,
2013-04-25 14:48:00,65.3,39.0,28.92,ESE,105,5.8,5.8,38,0.00,CLR,CLR,0.00,WeatherDisplay:10.37,2013-04-25 18:48:00,
2013-04-25 14:54:00,65.5,41.2,29.01,SW,229,3.5,3.5,41,0.00,CLR,CLR,0.00,WeatherDisplay:10.37,2013-04-25 18:54:00,
2013-04-25 14:59:00,65.6,41.9,28.99,SW,230,3.5,3.5,42,0.00,CLR,CLR,0.00,WeatherDisplay:10.37,2013-04-25 18:59:00,
2013-04-25 15:04:00,65.6,40.0,28.99,SE,131,5.8,5.8,39,0.00,CLR,CLR,0.00,WeatherDisplay:10.37,2013-04-25 19:04:00,
2013-04-25 15:09:00,66.0,41.0,28.86,South,190,8.1,8.1,40,0.00,CLR,CLR,0.00,WeatherDisplay:10.37,2013-04-25 19:09:00,
2013-04-25 15:14:00,66.5,42.7,28.88,South,182,4.6,4.6,42,0.00,CLR,CLR,0.00,WeatherDisplay:10.37,2013-04-25 19:14:00,
2013-04-25 15:19:00,66.7,40.3,28.95,SSW,202,6.9,6.9,38,0.00,CLR,CLR,0.00,WeatherDisplay:10.37,2013-04-25 19:19:00,
2013-04-25 15:25:00,66.8,41.0,28.94,SW,232,3.5,3.5,39,0.00,CLR,CLR,0.00,WeatherDisplay:10.37,2013-04-25 19:25:00,
2013-04-25 15:30:00,66.2,39.8,28.91,North,9,5.0,5.0,38,0.00,CLR,CLR,0.00,WeatherDisplay:10.37,2013-04-25 19:30:00,
2013-04-25 15:35:00,66.1,40.4,28.92,South,176,13.8,13.8,39,0.00,CLR,CLR,0.00,WeatherDisplay:10.37,2013-04-25 19:35:00,
2013-04-25 15:40:00,66.2,40.5,28.84,ESE,111,6.0,6.0,39,0.00,CLR,CLR,0.00,WeatherDisplay:10.37,2013-04-25 19:40:00,
2013-04-25 15:45:00,66.2,39.8,28.82,NNE,27,4.6,4.6,38,0.00,CLR,CLR,0.00,WeatherDisplay:10.37,2013-04-25 19:45:00,
2013-04-25 15:50:00,66.5,38.7,28.75,ESE,121,8.1,8.1,36,0.00,CLR,CLR,0.00,WeatherDisplay:10.37,2013-04-25 19:50:00,
2013-04-25 15:56:00,66.8,36.0,28.70,SSE,163,11.5,11.5,32,0.00,CLR,CLR,0.00,WeatherDisplay:10.37,2013-04-25 19:56:00,
2013-04-25 16:01:00,66.7,36.7,28.70,South,173,10.4,10.4,33,0.00,CLR,CLR,0.00,WeatherDisplay:10.37,2013-04-25 20:01:00,
2013-04-25 16:06:00,66.9,36.1,28.70,SSE,154,9.2,9.2,32,0.00,CLR,CLR,0.00,WeatherDisplay:10.37,2013-04-25 20:06:00,
2013-04-25 16:11:00,66.8,36.8,28.74,SW,222,12.7,12.7,33,0.00,CLR,CLR,0.00,WeatherDisplay:10.37,2013-04-25 20:11:00,
2013-04-25 16:16:00,67.0,36.9,28.76,South,180,10.4,10.4,33,0.00,CLR,CLR,0.00,WeatherDisplay:10.37,2013-04-25 20:16:00,
2013-04-25 16:21:00,67.1,33.8,28.84,NNE,14,6.9,6.9,29,0.00,CLR,CLR,0.00,WeatherDisplay:10.37,2013-04-25 20:21:00,
2013-04-25 16:26:00,66.9,31.8,28.86,WNW,302,10.4,10.4,27,0.00,CLR,CLR,0.00,WeatherDisplay:10.37,2013-04-25 20:26:00,
2013-04-25 16:32:00,66.6,30.6,28.85,WSW,251,9.2,9.2,26,0.00,CLR,CLR,0.00,WeatherDisplay:10.37,2013-04-25 20:32:00,
2013-04-25 16:37:00,66.4,30.4,28.80,WNW,287,10.4,10.4,26,0.00,CLR,CLR,0.00,WeatherDisplay:10.37,2013-04-25 20:37:00,
2013-04-25 16:42:00,66.4,32.3,28.90,North,359,6.9,6.9,28,0.00,CLR,CLR,0.00,WeatherDisplay:10.37,2013-04-25 20:42:00,
2013-04-25 16:47:00,66.2,29.3,28.82,NW,313,4.6,5.2,25,0.00,CLR,CLR,0.00,WeatherDisplay:10.37,2013-04-25 20:47:00,
2013-04-25 16:53:00,66.1,28.2,28.77,SW,227,9.2,9.2,24,0.00,CLR,CLR,0.00,WeatherDisplay:10.37,2013-04-25 20:53:00,
2013-04-25 16:58:00,66.1,29.2,28.84,West,266,13.8,13.8,25,0.00,CLR,CLR,0.00,WeatherDisplay:10.37,2013-04-25 20:58:00,
2013-04-25 17:03:00,66.0,30.1,28.81,West,274,8.1,8.1,26,0.00,CLR,CLR,0.00,WeatherDisplay:10.37,2013-04-25 21:03:00,
2013-04-25 17:08:00,65.9,29.1,28.80,West,264,8.0,8.0,25,0.00,CLR,CLR,0.00,WeatherDisplay:10.37,2013-04-25 21:08:00,
2013-04-25 17:13:00,65.7,29.8,28.81,SSW,192,5.8,5.8,26,0.00,CLR,CLR,0.00,WeatherDisplay:10.37,2013-04-25 21:13:00,
2013-04-25 17:18:00,65.8,29.9,28.82,West,281,8.1,8.1,26,0.00,CLR,CLR,0.00,WeatherDisplay:10.37,2013-04-25 21:18:00,
2013-04-25 17:24:00,65.6,30.7,28.77,South,170,5.8,5.8,27,0.00,CLR,CLR,0.00,WeatherDisplay:10.37,2013-04-25 21:24:00,
2013-04-25 17:29:00,65.5,30.6,28.80,SW,232,4.6,4.6,27,0.00,CLR,CLR,0.00,WeatherDisplay:10.37,2013-04-25 21:29:00,
2013-04-25 17:34:00,65.4,29.6,28.82,SSW,192,6.9,6.9,26,0.00,CLR,CLR,0.00,WeatherDisplay:10.37,2013-04-25 21:34:00,
2013-04-25 17:39:00,65.2,30.3,28.83,South,179,6.9,6.9,27,0.00,CLR,CLR,0.00,WeatherDisplay:10.37,2013-04-25 21:39:00,
2013-04-25 17:44:00,65.1,30.3,28.80,SSW,207,13.0,13.0,27,0.00,CLR,CLR,0.00,WeatherDisplay:10.37,2013-04-25 21:44:00,
2013-04-25 17:49:00,65.0,30.2,28.80,WSW,247,5.0,5.0,27,0.00,CLR,CLR,0.00,WeatherDisplay:10.37,2013-04-25 21:49:00,
2013-04-25 17:55:00,64.8,30.9,28.84,West,267,5.0,5.0,28,0.00,CLR,CLR,0.00,WeatherDisplay:10.37,2013-04-25 21:55:00,
2013-04-25 18:00:00,64.7,31.7,28.62,WSW,255,4.6,4.6,29,0.00,CLR,CLR,0.00,WeatherDisplay:10.37,2013-04-25 22:00:00,
2013-04-25 18:05:00,64.6,32.4,28.62,SW,223,4.6,4.6,30,0.00,CLR,CLR,0.00,WeatherDisplay:10.37,2013-04-25 22:05:00,
2013-04-25 18:10:00,64.4,31.4,28.62,SW,223,2.3,2.3,29,0.00,CLR,CLR,0.00,WeatherDisplay:10.37,2013-04-25 22:10:00,
2013-04-25 18:15:00,64.1,32.0,28.63,SW,223,3.5,3.5,30,0.00,CLR,CLR,0.00,WeatherDisplay:10.37,2013-04-25 22:15:00,
2013-04-25 18:20:00,63.8,32.6,28.62,NNW,342,3.0,3.0,31,0.00,CLR,CLR,0.00,WeatherDisplay:10.37,2013-04-25 22:20:00,
2013-04-25 18:26:00,63.6,32.4,28.63,NNW,329,4.0,4.0,31,0.00,CLR,CLR,0.00,WeatherDisplay:10.37,2013-04-25 22:26:00,
2013-04-25 18:31:00,63.6,33.2,28.63,WSW,247,4.0,4.0,32,0.00,CLR,CLR,0.00,WeatherDisplay:10.37,2013-04-25 22:31:00,
2013-04-25 18:36:00,63.5,31.5,28.62,South,191,2.3,2.3,30,0.00,CLR,CLR,0.00,WeatherDisplay:10.37,2013-04-25 22:36:00,
2013-04-25 18:41:00,63.4,29.7,28.62,NNW,332,5.8,5.8,28,0.00,CLR,CLR,0.00,WeatherDisplay:10.37,2013-04-25 22:41:00,
2013-04-25 18:46:00,63.2,29.5,28.62,SW,222,5.0,5.0,28,0.00,CLR,CLR,0.00,WeatherDisplay:10.37,2013-04-25 22:46:00,
2013-04-25 18:51:00,63.1,29.4,28.62,NNW,335,8.1,8.1,28,0.00,CLR,CLR,0.00,WeatherDisplay:10.37,2013-04-25 22:51:00,
2013-04-25 18:56:00,62.9,29.3,28.63,WNW,301,5.8,5.8,28,0.00,CLR,CLR,0.00,WeatherDisplay:10.37,2013-04-25 22:56:00,
2013-04-25 19:01:00,62.8,29.2,28.63,SSW,213,3.5,3.5,28,0.00,CLR,CLR,0.00,WeatherDisplay:10.37,2013-04-25 23:01:00,
2013-04-25 19:07:00,62.6,29.9,28.63,WNW,303,8.1,8.1,29,0.00,CLR,CLR,0.00,WeatherDisplay:10.37,2013-04-25 23:07:00,
2013-04-25 19:12:00,62.5,30.6,28.63,West,264,4.6,4.6,30,0.00,CLR,CLR,0.00,WeatherDisplay:10.37,2013-04-25 23:12:00,
2013-04-25 19:17:00,62.4,30.5,28.63,WNW,289,8.1,8.1,30,0.00,CLR,CLR,0.00,WeatherDisplay:10.37,2013-04-25 23:17:00,
2013-04-25 19:22:00,62.2,30.4,28.63,WNW,286,16.1,16.1,30,0.00,CLR,CLR,0.00,WeatherDisplay:10.37,2013-04-25 23:22:00,
2013-04-25 19:27:00,62.0,30.2,28.63,West,272,4.6,4.6,30,0.00,CLR,CLR,0.00,WeatherDisplay:10.37,2013-04-25 23:27:00,
2013-04-25 19:33:00,61.7,30.7,28.64,West,274,1.2,1.2,31,0.00,CLR,CLR,0.00,WeatherDisplay:10.37,2013-04-25 23:33:00,
2013-04-25 19:38:00,61.3,31.2,28.64,West,274,2.3,2.3,32,0.00,CLR,CLR,0.00,WeatherDisplay:10.37,2013-04-25 23:38:00,
2013-04-25 19:43:00,61.0,30.1,28.64,West,274,3.5,3.5,31,0.00,CLR,CLR,0.00,WeatherDisplay:10.37,2013-04-25 23:43:00,
2013-04-25 19:48:00,60.6,29.8,28.64,WNW,292,5.8,5.8,31,0.00,CLR,CLR,0.00,WeatherDisplay:10.37,2013-04-25 23:48:00,
2013-04-25 19:54:00,60.4,29.6,28.65,NW,319,3.5,3.5,31,0.00,CLR,CLR,0.00,WeatherDisplay:10.37,2013-04-25 23:54:00,
2013-04-25 19:59:00,60.1,30.1,28.65,West,272,3.5,3.5,32,0.00,CLR,CLR,0.00,WeatherDisplay:10.37,2013-04-25 23:59:00,
2013-04-25 20:04:00,59.8,30.6,28.65,West,267,3.0,3.0,33,0.00,CLR,CLR,0.00,WeatherDisplay:10.37,2013-04-26 00:04:00,
2013-04-25 20:09:00,59.4,30.3,28.65,West,268,1.2,1.2,33,0.00,CLR,CLR,0.00,WeatherDisplay:10.37,2013-04-26 00:09:00,
2013-04-25 20:14:00,59.0,29.9,28.65,West,267,2.3,2.3,33,0.00,CLR,CLR,0.00,WeatherDisplay:10.37,2013-04-26 00:14:00,
2013-04-25 20:20:00,58.6,30.3,28.66,West,268,3.5,3.5,34,0.00,CLR,CLR,0.00,WeatherDisplay:10.37,2013-04-26 00:20:00,
2013-04-25 20:25:00,58.2,29.9,28.65,West,268,4.6,4.6,34,0.00,CLR,CLR,0.00,WeatherDisplay:10.37,2013-04-26 00:25:00,
2013-04-25 20:30:00,58.2,30.7,28.66,West,279,3.5,3.5,35,0.00,CLR,CLR,0.00,WeatherDisplay:10.37,2013-04-26 00:30:00,
2013-04-25 20:35:00,58.0,31.2,28.66,West,279,2.3,2.3,36,0.00,CLR,CLR,0.00,WeatherDisplay:10.37,2013-04-26 00:35:00,
2013-04-25 20:40:00,57.9,31.8,28.66,West,279,3.5,3.5,37,0.00,CLR,CLR,0.00,WeatherDisplay:10.37,2013-04-26 00:40:00,
2013-04-25 20:46:00,57.6,32.2,28.66,West,279,3.5,3.5,38,0.00,CLR,CLR,0.00,WeatherDisplay:10.37,2013-04-26 00:46:00,
2013-04-25 20:51:00,57.4,32.6,28.67,West,278,3.5,3.5,39,0.00,CLR,CLR,0.00,WeatherDisplay:10.37,2013-04-26 00:51:00,
2013-04-25 20:56:00,57.2,32.4,28.67,West,271,3.5,3.5,39,0.00,CLR,CLR,0.00,WeatherDisplay:10.37,2013-04-26 00:56:00,
2013-04-25 21:01:00,57.1,32.4,28.67,West,271,2.3,2.3,39,0.00,CLR,CLR,0.00,WeatherDisplay:10.37,2013-04-26 01:01:00,
2013-04-25 21:07:00,56.9,32.8,28.68,West,269,3.5,3.5,40,0.00,CLR,CLR,0.00,WeatherDisplay:10.37,2013-04-26 01:07:00,
2013-04-25 21:12:00,56.8,33.3,28.68,West,269,2.3,2.3,41,0.00,CLR,CLR,0.00,WeatherDisplay:10.37,2013-04-26 01:12:00,
2013-04-25 21:17:00,56.6,33.2,28.68,SW,230,3.5,3.5,41,0.00,CLR,CLR,0.00,WeatherDisplay:10.37,2013-04-26 01:17:00,
2013-04-25 21:22:00,56.5,33.1,28.69,SW,234,3.5,3.5,41,0.00,CLR,CLR,0.00,WeatherDisplay:10.37,2013-04-26 01:22:00,
2013-04-25 21:27:00,56.6,33.2,28.69,WNW,293,3.0,3.0,41,0.00,CLR,CLR,0.00,WeatherDisplay:10.37,2013-04-26 01:27:00,
2013-04-25 21:32:00,56.5,33.7,28.69,WNW,293,2.3,2.3,42,0.00,CLR,CLR,0.00,WeatherDisplay:10.37,2013-04-26 01:32:00,
2013-04-25 21:38:00,56.2,33.4,28.70,WNW,293,3.5,3.5,42,0.00,CLR,CLR,0.00,WeatherDisplay:10.37,2013-04-26 01:38:00,
2013-04-25 21:43:00,55.9,33.7,28.69,WNW,293,3.5,3.5,43,0.00,CLR,CLR,0.00,WeatherDisplay:10.37,2013-04-26 01:43:00,
2013-04-25 21:48:00,55.7,34.1,28.70,WNW,293,2.3,2.3,44,0.00,CLR,CLR,0.00,WeatherDisplay:10.37,2013-04-26 01:48:00,
2013-04-25 21:53:00,55.5,33.9,28.70,WNW,293,0.0,0.0,44,0.00,CLR,CLR,0.00,WeatherDisplay:10.37,2013-04-26 01:53:00,
2013-04-25 21:58:00,55.2,33.6,28.70,WNW,293,1.2,1.2,44,0.00,CLR,CLR,0.00,WeatherDisplay:10.37,2013-04-26 01:58:00,
2013-04-25 22:03:00,55.0,34.0,28.71,West,272,3.5,3.5,45,0.00,CLR,CLR,0.00,WeatherDisplay:10.37,2013-04-26 02:03:00,
2013-04-25 22:08:00,54.8,33.8,28.71,West,272,2.3,2.3,45,0.00,CLR,CLR,0.00,WeatherDisplay:10.37,2013-04-26 02:08:00,
2013-04-25 22:14:00,54.7,33.8,28.71,West,272,2.3,2.3,45,0.00,CLR,CLR,0.00,WeatherDisplay:10.37,2013-04-26 02:14:00,
2013-04-25 22:19:00,54.6,33.7,28.70,West,272,2.3,2.3,45,0.00,CLR,CLR,0.00,WeatherDisplay:10.37,2013-04-26 02:19:00,
2013-04-25 22:24:00,54.5,34.1,28.71,West,272,3.5,3.5,46,0.00,CLR,CLR,0.00,WeatherDisplay:10.37,2013-04-26 02:24:00,
2013-04-25 22:29:00,54.1,34.3,28.71,West,269,2.3,2.3,47,0.00,CLR,CLR,0.00,WeatherDisplay:10.37,2013-04-26 02:29:00,
2013-04-25 22:34:00,53.9,34.6,28.71,West,269,3.5,3.5,48,0.00,CLR,CLR,0.00,WeatherDisplay:10.37,2013-04-26 02:34:00,
2013-04-25 22:39:00,53.8,34.6,28.71,West,265,3.5,3.5,48,0.00,CLR,CLR,0.00,WeatherDisplay:10.37,2013-04-26 02:39:00,
2013-04-25 22:45:00,53.7,34.5,28.71,WSW,258,3.5,3.5,48,0.00,CLR,CLR,0.00,WeatherDisplay:10.37,2013-04-26 02:45:00,
2013-04-25 22:50:00,53.7,34.5,28.71,WSW,251,3.5,3.5,48,0.00,CLR,CLR,0.00,WeatherDisplay:10.37,2013-04-26 02:50:00,
2013-04-25 22:55:00,53.6,34.9,28.71,WSW,251,2.3,2.3,49,0.00,CLR,CLR,0.00,WeatherDisplay:10.37,2013-04-26 02:55:00,
2013-04-25 23:00:00,53.5,34.8,28.71,WSW,251,3.5,3.5,49,0.00,CLR,CLR,0.00,WeatherDisplay:10.37,2013-04-26 03:00:00,
2013-04-25 23:05:00,53.4,34.7,28.71,WSW,251,3.5,3.5,49,0.00,CLR,CLR,0.00,WeatherDisplay:10.37,2013-04-26 03:05:00,
2013-04-25 23:10:00,53.3,34.6,28.71,WSW,251,3.5,3.5,49,0.00,CLR,CLR,0.00,WeatherDisplay:10.37,2013-04-26 03:10:00,
2013-04-25 23:15:00,53.4,35.2,28.71,WNW,297,4.6,4.6,50,0.00,CLR,CLR,0.00,WeatherDisplay:10.37,2013-04-26 03:15:00,
2013-04-25 23:21:00,53.5,35.3,28.71,WNW,295,3.5,3.5,50,0.00,CLR,CLR,0.00,WeatherDisplay:10.37,2013-04-26 03:21:00,
2013-04-25 23:26:00,53.5,35.8,28.71,SW,219,4.6,4.6,51,0.00,CLR,CLR,0.00,WeatherDisplay:10.37,2013-04-26 03:26:00,
2013-04-25 23:31:00,53.5,35.8,28.72,WNW,296,3.5,3.5,51,0.00,CLR,CLR,0.00,WeatherDisplay:10.37,2013-04-26 03:31:00,
2013-04-25 23:36:00,53.5,36.3,28.71,WSW,257,4.6,4.6,52,0.00,CLR,CLR,0.00,WeatherDisplay:10.37,2013-04-26 03:36:00,
2013-04-25 23:41:00,53.5,36.3,28.72,NW,304,4.6,4.6,52,0.00,CLR,CLR,0.00,WeatherDisplay:10.37,2013-04-26 03:41:00,
2013-04-25 23:46:00,53.3,36.1,28.72,NW,312,3.5,3.5,52,0.00,CLR,CLR,0.00,WeatherDisplay:10.37,2013-04-26 03:46:00,
2013-04-25 23:51:00,53.2,36.0,28.72,WNW,303,5.8,5.8,52,0.00,CLR,CLR,0.00,WeatherDisplay:10.37,2013-04-26 03:51:00,
2013-04-25 23:57:00,53.4,35.7,28.72,NW,314,5.8,5.8,51,0.00,CLR,CLR,0.00,WeatherDisplay:10.37,2013-04-26 03:57:00,